createdAt,value
2017-08-06T00:00:21.826Z,0
2017-08-06T00:01:02.257Z,0
2017-08-06T00:01:42.756Z,0
2017-08-06T00:02:23.134Z,0
2017-08-06T00:03:03.686Z,0
2017-08-06T00:03:44.021Z,0
2017-08-06T00:04:24.410Z,0
2017-08-06T00:05:04.929Z,0
2017-08-06T00:05:45.433Z,0
2017-08-06T00:06:25.772Z,0
2017-08-06T00:07:06.229Z,0
2017-08-06T00:07:46.723Z,0
2017-08-06T00:08:27.205Z,0
2017-08-06T00:09:07.708Z,0
2017-08-06T00:09:48.095Z,0
2017-08-06T00:10:28.507Z,0
2017-08-06T00:11:08.973Z,0
2017-08-06T00:11:49.423Z,0
2017-08-06T00:12:29.823Z,0
2017-08-06T00:13:10.281Z,0
2017-08-06T00:13:50.621Z,0
2017-08-06T00:14:31.067Z,0
2017-08-06T00:15:11.419Z,0
2017-08-06T00:15:51.846Z,0
2017-08-06T00:16:32.252Z,0
2017-08-06T00:17:12.697Z,0
2017-08-06T00:17:53.151Z,0
2017-08-06T00:18:33.546Z,0
2017-08-06T00:19:13.989Z,0
2017-08-06T00:19:54.382Z,0
2017-08-06T00:20:34.935Z,0
2017-08-06T00:21:15.388Z,0
2017-08-06T00:21:55.733Z,0
2017-08-06T00:22:36.138Z,0
2017-08-06T00:23:16.623Z,0
2017-08-06T00:23:56.976Z,0
2017-08-06T00:24:37.569Z,0
2017-08-06T00:25:17.833Z,0
2017-08-06T00:25:58.304Z,0
2017-08-06T00:26:38.713Z,0
2017-08-06T00:27:19.154Z,0
2017-08-06T00:27:59.777Z,0
2017-08-06T00:28:40.210Z,0
2017-08-06T00:29:20.633Z,0
2017-08-06T00:34:16.340Z,0
2017-08-06T00:50:56.199Z,0
2017-08-06T00:51:51.413Z,0
2017-08-06T00:52:49.139Z,0
2017-08-06T00:53:49.606Z,0
2017-08-06T00:57:30.413Z,0
2017-08-06T00:58:10.866Z,0
2017-08-06T00:58:51.199Z,0
2017-08-06T00:59:31.659Z,0
2017-08-06T01:00:12.107Z,0
2017-08-06T01:00:52.497Z,0
2017-08-06T01:01:32.957Z,0
2017-08-06T01:02:13.354Z,0
2017-08-06T01:02:53.840Z,0
2017-08-06T01:03:34.264Z,0
2017-08-06T01:04:14.722Z,0
2017-08-06T01:04:55.191Z,0
2017-08-06T01:05:35.634Z,0
2017-08-06T01:06:16.144Z,0
2017-08-06T01:06:56.538Z,0
2017-08-06T01:07:36.896Z,0
2017-08-06T01:08:17.412Z,0
2017-08-06T01:08:57.878Z,0
2017-08-06T01:09:38.298Z,0
2017-08-06T01:10:18.839Z,0
2017-08-06T01:10:59.198Z,0
2017-08-06T01:11:39.659Z,0
2017-08-06T01:12:20.184Z,0
2017-08-06T01:13:00.738Z,0
2017-08-06T01:13:41.143Z,0
2017-08-06T01:14:21.620Z,0
2017-08-06T01:15:02.019Z,0
2017-08-06T01:15:42.427Z,0
2017-08-06T01:16:23.530Z,0
2017-08-06T01:17:03.995Z,0
2017-08-06T01:17:44.428Z,0
2017-08-06T01:18:24.949Z,0
2017-08-06T01:19:05.429Z,0
2017-08-06T01:19:45.826Z,0
2017-08-06T01:20:26.379Z,0
2017-08-06T01:21:06.919Z,0
2017-08-06T01:21:47.221Z,0
2017-08-06T01:22:27.635Z,0
2017-08-06T01:23:08.202Z,0
2017-08-06T01:23:48.646Z,0
2017-08-06T01:24:29.006Z,0
2017-08-06T01:25:09.625Z,0
2017-08-06T01:25:50.003Z,0
2017-08-06T01:26:30.474Z,0
2017-08-06T01:27:10.819Z,0
2017-08-06T01:27:51.219Z,0
2017-08-06T01:28:31.708Z,0
2017-08-06T01:29:12.156Z,0
2017-08-06T01:29:52.482Z,0
2017-08-06T01:30:32.921Z,0
2017-08-06T01:31:13.298Z,0
2017-08-06T01:31:53.790Z,0
2017-08-06T01:32:34.253Z,0
2017-08-06T01:33:14.638Z,0
2017-08-06T01:33:55.051Z,0
2017-08-06T01:34:35.423Z,0
2017-08-06T01:35:15.847Z,0
2017-08-06T01:35:56.273Z,0
2017-08-06T01:36:36.649Z,0
2017-08-06T01:37:17.025Z,0
2017-08-06T01:37:57.512Z,0
2017-08-06T01:38:37.879Z,0
2017-08-06T01:39:18.322Z,0
2017-08-06T01:39:59.739Z,0
2017-08-06T01:40:39.918Z,0
2017-08-06T01:41:20.376Z,0
2017-08-06T01:42:00.741Z,0
2017-08-06T01:52:35.263Z,0
2017-08-06T01:53:29.025Z,0
2017-08-06T01:59:29.721Z,0
2017-08-06T02:11:51.622Z,0
2017-08-06T02:12:42.400Z,0
2017-08-06T02:13:32.629Z,0
2017-08-06T02:16:01.405Z,0
2017-08-06T02:16:59.302Z,0
2017-08-06T02:18:01.087Z,0
2017-08-06T02:32:31.059Z,0
2017-08-06T02:33:20.021Z,0
2017-08-06T02:34:20.654Z,0
2017-08-06T03:29:46.544Z,0
2017-08-06T04:01:10.591Z,5
2017-08-06T04:01:50.993Z,5
2017-08-06T04:02:31.805Z,5
2017-08-06T04:03:12.174Z,5
2017-08-06T04:03:52.799Z,5
2017-08-06T04:04:33.426Z,5
2017-08-06T04:05:13.784Z,10
2017-08-06T04:05:54.341Z,10
2017-08-06T04:06:34.748Z,10
2017-08-06T04:07:15.187Z,10
2017-08-06T04:07:55.559Z,10
2017-08-06T04:08:35.998Z,10
2017-08-06T04:09:16.473Z,10
2017-08-06T04:09:57.268Z,10
2017-08-06T04:10:37.619Z,15
2017-08-06T04:11:18.158Z,15
2017-08-06T04:11:58.630Z,15
2017-08-06T04:12:39.148Z,15
2017-08-06T04:13:19.501Z,15
2017-08-06T04:14:00.451Z,15
2017-08-06T04:14:40.592Z,15
2017-08-06T04:15:21.041Z,20
2017-08-06T04:16:01.559Z,20
2017-08-06T04:16:42.822Z,20
2017-08-06T04:17:23.274Z,20
2017-08-06T04:18:03.800Z,20
2017-08-06T04:18:44.305Z,20
2017-08-06T04:19:24.700Z,25
2017-08-06T04:20:05.695Z,25
2017-08-06T04:20:46.094Z,25
2017-08-06T04:21:26.377Z,25
2017-08-06T04:22:06.718Z,25
2017-08-06T04:22:47.418Z,30
2017-08-06T04:23:27.524Z,30
2017-08-06T04:24:08.342Z,30
2017-08-06T04:24:48.675Z,30
2017-08-06T04:25:29.270Z,35
2017-08-06T04:26:09.639Z,35
2017-08-06T04:26:50.341Z,35
2017-08-06T04:27:30.413Z,35
2017-08-06T04:28:10.824Z,35
2017-08-06T04:28:51.177Z,35
2017-08-06T04:29:31.789Z,35
2017-08-06T04:30:12.035Z,40
2017-08-06T04:30:52.499Z,40
2017-08-06T04:31:32.969Z,40
2017-08-06T04:32:13.316Z,40
2017-08-06T04:32:53.708Z,40
2017-08-06T04:33:33.999Z,45
2017-08-06T04:34:14.497Z,45
2017-08-06T04:34:55.138Z,45
2017-08-06T04:35:35.513Z,45
2017-08-06T04:36:16.228Z,45
2017-08-06T04:36:56.695Z,45
2017-08-06T04:37:37.072Z,45
2017-08-06T04:38:17.424Z,45
2017-08-06T04:38:58.346Z,50
2017-08-06T04:39:38.847Z,45
2017-08-06T04:40:19.254Z,50
2017-08-06T04:40:59.778Z,50
2017-08-06T04:41:40.082Z,50
2017-08-06T04:42:20.721Z,50
2017-08-06T04:43:01.003Z,55
2017-08-06T04:43:41.710Z,55
2017-08-06T04:44:21.922Z,55
2017-08-06T04:45:02.988Z,55
2017-08-06T04:45:43.527Z,55
2017-08-06T04:46:23.888Z,60
2017-08-06T04:47:04.588Z,65
2017-08-06T04:47:44.828Z,70
2017-08-06T04:48:25.535Z,70
2017-08-06T04:49:07.569Z,70
2017-08-06T04:49:48.749Z,70
2017-08-06T04:50:29.210Z,75
2017-08-06T04:51:09.712Z,75
2017-08-06T04:51:50.901Z,80
2017-08-06T04:52:33.778Z,80
2017-08-06T04:53:14.633Z,85
2017-08-06T04:53:55.310Z,90
2017-08-06T04:54:37.344Z,100
2017-08-06T04:55:22.132Z,110
2017-08-06T04:56:04.268Z,125
2017-08-06T04:56:45.392Z,125
2017-08-06T04:57:29.303Z,120
2017-08-06T04:58:10.810Z,125
2017-08-06T04:58:53.388Z,125
2017-08-06T04:59:32.319Z,125
2017-08-06T05:00:14.619Z,130
2017-08-06T05:00:58.860Z,125
2017-08-06T05:01:41.141Z,140
2017-08-06T05:02:22.236Z,145
2017-08-06T05:03:03.003Z,150
2017-08-06T05:03:44.118Z,125
2017-08-06T05:04:26.926Z,130
2017-08-06T05:26:28.399Z,255
2017-08-06T05:27:16.934Z,245
2017-08-06T05:28:05.360Z,265
2017-08-06T05:28:54.170Z,270
2017-08-06T05:29:42.486Z,275
2017-08-06T05:35:17.056Z,325
2017-08-06T05:48:49.631Z,440
2017-08-06T05:49:29.964Z,465
2017-08-06T05:50:10.490Z,480
2017-08-06T05:50:51.169Z,450
2017-08-06T05:51:31.607Z,400
2017-08-06T05:52:12.476Z,545
2017-08-06T05:52:52.329Z,545
2017-08-06T05:53:33.082Z,450
2017-08-06T05:54:13.451Z,490
2017-08-06T05:54:53.934Z,515
2017-08-06T05:55:34.353Z,545
2017-08-06T05:56:14.781Z,490
2017-08-06T05:56:55.159Z,400
2017-08-06T05:57:35.566Z,390
2017-08-06T05:58:15.993Z,485
2017-08-06T06:00:56.259Z,1520
2017-08-06T06:01:36.650Z,1460
2017-08-06T06:02:17.073Z,1155
2017-08-06T06:02:57.517Z,960
2017-08-06T06:03:37.997Z,955
2017-08-06T06:04:18.361Z,915
2017-08-06T06:04:58.878Z,890
2017-08-06T06:05:39.233Z,875
2017-08-06T06:09:55.725Z,565
2017-08-06T06:10:36.196Z,865
2017-08-06T06:11:16.681Z,855
2017-08-06T06:11:56.979Z,880
2017-08-06T06:12:37.402Z,875
2017-08-06T06:13:17.808Z,915
2017-08-06T06:13:58.169Z,905
2017-08-06T06:14:38.582Z,910
2017-08-06T06:15:19.004Z,905
2017-08-06T06:15:59.402Z,915
2017-08-06T06:16:39.803Z,925
2017-08-06T06:17:20.235Z,960
2017-08-06T06:18:00.595Z,965
2017-08-06T06:18:41.067Z,955
2017-08-06T06:19:21.447Z,945
2017-08-06T06:20:01.940Z,930
2017-08-06T06:20:42.314Z,935
2017-08-06T06:21:22.892Z,950
2017-08-06T06:22:03.298Z,960
2017-08-06T06:22:43.723Z,965
2017-08-06T06:23:24.745Z,970
2017-08-06T06:24:04.694Z,985
2017-08-06T06:24:45.463Z,1005
2017-08-06T06:25:25.656Z,1020
2017-08-06T06:26:06.244Z,1015
2017-08-06T06:26:46.643Z,1025
2017-08-06T06:27:27.144Z,1025
2017-08-06T06:28:07.626Z,1035
2017-08-06T06:28:48.072Z,1040
2017-08-06T06:29:28.549Z,1050
2017-08-06T06:30:08.978Z,1045
2017-08-06T06:30:49.394Z,1075
2017-08-06T06:31:29.941Z,1090
2017-08-06T06:32:10.400Z,1090
2017-08-06T06:32:50.771Z,1115
2017-08-06T06:33:31.403Z,1150
2017-08-06T06:34:11.735Z,1185
2017-08-06T06:34:52.137Z,1190
2017-08-06T06:35:32.568Z,1160
2017-08-06T06:36:13.130Z,1145
2017-08-06T06:36:53.452Z,1135
2017-08-06T06:37:34.044Z,1145
2017-08-06T06:38:14.439Z,1145
2017-08-06T06:38:54.945Z,1160
2017-08-06T06:39:35.251Z,1180
2017-08-06T06:40:15.803Z,1215
2017-08-06T06:40:56.148Z,1205
2017-08-06T06:41:36.576Z,1190
2017-08-06T06:42:17.111Z,1195
2017-08-06T06:42:57.490Z,1200
2017-08-06T06:43:37.931Z,1205
2017-08-06T06:44:18.386Z,1185
2017-08-06T06:44:58.808Z,1230
2017-08-06T06:45:39.200Z,1200
2017-08-06T06:46:19.603Z,1205
2017-08-06T06:46:59.986Z,1210
2017-08-06T06:47:40.407Z,1230
2017-08-06T06:48:20.821Z,1230
2017-08-06T06:49:01.292Z,1230
2017-08-06T06:49:41.670Z,1240
2017-08-06T06:50:22.132Z,1285
2017-08-06T06:51:02.530Z,1340
2017-08-06T06:51:42.900Z,1355
2017-08-06T06:52:23.286Z,1375
2017-08-06T06:53:03.749Z,1380
2017-08-06T06:53:44.169Z,1400
2017-08-06T06:54:24.582Z,1405
2017-08-06T06:55:04.963Z,1395
2017-08-06T06:55:45.376Z,1410
2017-08-06T06:56:25.819Z,1445
2017-08-06T06:57:06.246Z,1430
2017-08-06T06:57:46.654Z,1410
2017-08-06T06:58:27.080Z,1400
2017-08-06T06:59:07.493Z,1400
2017-08-06T06:59:47.867Z,1365
2017-08-06T07:00:28.376Z,1355
2017-08-06T07:01:08.767Z,1355
2017-08-06T07:01:49.233Z,1365
2017-08-06T07:02:29.629Z,1395
2017-08-06T07:03:10.046Z,1460
2017-08-06T07:03:50.519Z,1485
2017-08-06T07:04:30.970Z,1485
2017-08-06T07:05:11.334Z,1445
2017-08-06T07:05:51.737Z,1475
2017-08-06T07:08:19.542Z,1535
2017-08-06T07:08:59.897Z,1565
2017-08-06T07:09:40.289Z,1590
2017-08-06T07:10:20.710Z,1580
2017-08-06T07:11:01.088Z,1590
2017-08-06T07:11:41.491Z,1595
2017-08-06T07:12:21.968Z,1585
2017-08-06T07:13:02.310Z,1615
2017-08-06T07:13:42.756Z,1705
2017-08-06T07:14:23.170Z,1740
2017-08-06T07:15:03.577Z,1705
2017-08-06T07:15:43.972Z,1695
2017-08-06T07:16:24.467Z,1710
2017-08-06T07:17:04.849Z,1730
2017-08-06T07:17:45.242Z,1650
2017-08-06T07:18:25.686Z,1410
2017-08-06T07:19:06.064Z,645
2017-08-06T07:19:46.541Z,675
2017-08-06T07:20:26.904Z,1680
2017-08-06T07:21:07.322Z,1125
2017-08-06T07:21:47.741Z,1375
2017-08-06T07:22:28.146Z,1760
2017-08-06T07:23:08.582Z,1780
2017-08-06T07:23:49.023Z,1805
2017-08-06T07:24:29.357Z,1825
2017-08-06T07:25:09.779Z,1785
2017-08-06T07:25:50.196Z,1120
2017-08-06T07:26:30.744Z,950
2017-08-06T07:27:11.165Z,780
2017-08-06T07:27:51.581Z,725
2017-08-06T07:28:32.039Z,725
2017-08-06T07:29:12.489Z,905
2017-08-06T07:29:52.838Z,1825
2017-08-06T07:30:33.220Z,1270
2017-08-06T07:31:13.661Z,1010
2017-08-06T07:31:54.108Z,2050
2017-08-06T07:38:18.635Z,515
2017-08-06T07:38:59.088Z,540
2017-08-06T07:39:39.475Z,600
2017-08-06T07:40:19.843Z,640
2017-08-06T07:41:00.259Z,620
2017-08-06T07:41:40.643Z,600
2017-08-06T07:42:21.073Z,630
2017-08-06T07:43:01.504Z,700
2017-08-06T07:43:41.910Z,720
2017-08-06T07:44:22.261Z,735
2017-08-06T07:45:02.718Z,670
2017-08-06T07:45:43.099Z,645
2017-08-06T07:46:23.503Z,620
2017-08-06T07:47:03.933Z,595
2017-08-06T07:47:44.364Z,605
2017-08-06T07:48:24.721Z,635
2017-08-06T07:49:05.170Z,685
2017-08-06T07:49:45.553Z,745
2017-08-06T07:50:25.988Z,1790
2017-08-06T07:51:06.346Z,2105
2017-08-06T07:51:46.741Z,1400
2017-08-06T07:52:27.138Z,1475
2017-08-06T07:53:07.567Z,2400
2017-08-06T07:53:48.025Z,2360
2017-08-06T07:54:28.418Z,2355
2017-08-06T07:55:08.810Z,2330
2017-08-06T07:55:49.244Z,2020
2017-08-06T07:56:29.650Z,1245
2017-08-06T07:57:10.079Z,675
2017-08-06T07:57:51.027Z,650
2017-08-06T08:02:26.467Z,480
2017-08-06T08:03:06.863Z,480
2017-08-06T08:03:47.342Z,465
2017-08-06T08:04:27.796Z,455
2017-08-06T08:05:08.251Z,465
2017-08-06T08:05:48.537Z,580
2017-08-06T08:06:28.944Z,2265
2017-08-06T08:07:09.418Z,1340
2017-08-06T08:07:49.745Z,2045
2017-08-06T08:08:30.180Z,1940
2017-08-06T08:09:10.616Z,1850
2017-08-06T08:09:50.993Z,1935
2017-08-06T08:10:31.486Z,2110
2017-08-06T08:11:11.900Z,2130
2017-08-06T08:11:52.235Z,2145
2017-08-06T08:12:32.722Z,2140
2017-08-06T08:13:13.132Z,2130
2017-08-06T08:13:53.467Z,2130
2017-08-06T08:14:33.899Z,2155
2017-08-06T08:15:14.281Z,2200
2017-08-06T08:15:54.759Z,2170
2017-08-06T08:16:35.108Z,2235
2017-08-06T08:17:15.513Z,2210
2017-08-06T08:20:03.380Z,2240
2017-08-06T08:21:05.268Z,2320
2017-08-06T08:22:02.392Z,2345
2017-08-06T08:23:02.488Z,1405
2017-08-06T08:23:59.103Z,720
2017-08-06T08:24:53.179Z,2590
2017-08-06T08:25:50.899Z,2555
2017-08-06T08:26:50.744Z,2340
2017-08-06T08:27:50.643Z,2555
2017-08-06T08:28:49.545Z,2720
2017-08-06T08:29:43.617Z,1120
2017-08-06T08:30:37.952Z,2510
2017-08-06T08:31:32.708Z,835
2017-08-06T08:32:22.455Z,560
2017-08-06T08:33:02.814Z,525
2017-08-06T08:33:43.263Z,515
2017-08-06T08:34:23.671Z,555
2017-08-06T08:35:04.068Z,545
2017-08-06T08:35:44.506Z,745
2017-08-06T08:36:25.005Z,1490
2017-08-06T08:37:05.448Z,575
2017-08-06T08:37:46.000Z,465
2017-08-06T08:38:26.523Z,480
2017-08-06T08:39:06.935Z,490
2017-08-06T08:39:47.332Z,530
2017-08-06T08:40:27.984Z,1130
2017-08-06T08:41:08.257Z,2745
2017-08-06T08:41:48.715Z,2980
2017-08-06T08:42:29.127Z,2965
2017-08-06T08:43:09.581Z,2985
2017-08-06T08:43:50.021Z,3025
2017-08-06T08:44:30.388Z,3060
2017-08-06T08:45:10.796Z,3025
2017-08-06T08:45:51.209Z,3040
2017-08-06T08:46:31.695Z,3100
2017-08-06T08:47:12.111Z,3180
2017-08-06T08:47:52.498Z,3150
2017-08-06T08:48:32.963Z,3120
2017-08-06T08:49:13.332Z,3070
2017-08-06T08:49:53.779Z,3025
2017-08-06T08:50:34.207Z,2985
2017-08-06T08:51:14.615Z,3055
2017-08-06T08:51:55.035Z,3115
2017-08-06T08:52:35.470Z,3130
2017-08-06T08:53:15.914Z,3065
2017-08-06T08:53:56.372Z,3050
2017-08-06T08:54:36.774Z,3060
2017-08-06T08:55:17.194Z,3035
2017-08-06T08:55:57.630Z,2990
2017-08-06T08:56:38.083Z,2960
2017-08-06T08:57:18.560Z,2990
2017-08-06T08:57:58.945Z,3145
2017-08-06T08:58:39.410Z,3160
2017-08-06T08:59:19.839Z,3060
2017-08-06T09:00:00.185Z,3035
2017-08-06T09:00:40.772Z,3030
2017-08-06T09:01:21.329Z,2955
2017-08-06T09:02:01.744Z,3080
2017-08-06T09:02:42.178Z,3130
2017-08-06T09:03:22.573Z,3210
2017-08-06T09:04:03.062Z,3240
2017-08-06T09:04:43.701Z,3235
2017-08-06T09:05:23.975Z,3215
2017-08-06T09:06:04.455Z,3275
2017-08-06T09:06:44.886Z,3250
2017-08-06T09:07:25.286Z,3280
2017-08-06T09:08:05.762Z,3235
2017-08-06T09:08:46.297Z,3340
2017-08-06T09:09:26.791Z,3375
2017-08-06T09:10:07.316Z,3500
2017-08-06T09:10:47.954Z,3520
2017-08-06T09:11:28.425Z,3535
2017-08-06T09:12:08.914Z,3495
2017-08-06T09:12:49.343Z,3280
2017-08-06T09:13:29.773Z,2935
2017-08-06T09:14:10.117Z,3215
2017-08-06T09:14:50.599Z,2545
2017-08-06T09:15:30.929Z,1235
2017-08-06T09:16:11.326Z,2585
2017-08-06T09:16:51.735Z,3245
2017-08-06T09:17:32.390Z,2785
2017-08-06T09:18:12.801Z,2245
2017-08-06T09:18:53.322Z,970
2017-08-06T09:19:33.846Z,3540
2017-08-06T09:20:14.187Z,3585
2017-08-06T09:20:54.869Z,3595
2017-08-06T09:21:35.349Z,3535
2017-08-06T09:22:15.794Z,3520
2017-08-06T09:22:56.264Z,3495
2017-08-06T09:23:36.752Z,3525
2017-08-06T09:24:17.163Z,3525
2017-08-06T09:24:57.612Z,3545
2017-08-06T09:25:37.958Z,3600
2017-08-06T09:26:18.429Z,3615
2017-08-06T09:26:58.752Z,3610
2017-08-06T09:27:39.142Z,3580
2017-08-06T09:28:19.626Z,3420
2017-08-06T09:29:00.082Z,3300
2017-08-06T09:29:40.486Z,3375
2017-08-06T09:30:20.987Z,3615
2017-08-06T09:31:01.362Z,3815
2017-08-06T09:31:41.819Z,4005
2017-08-06T09:32:22.154Z,4055
2017-08-06T09:33:02.599Z,4265
2017-08-06T09:33:43.055Z,4450
2017-08-06T09:34:23.457Z,4540
2017-08-06T09:35:03.869Z,4620
2017-08-06T09:35:44.348Z,4635
2017-08-06T09:36:24.824Z,4565
2017-08-06T09:37:05.208Z,4630
2017-08-06T09:37:45.614Z,4770
2017-08-06T09:38:25.997Z,4865
2017-08-06T09:39:06.560Z,4740
2017-08-06T09:39:46.980Z,4680
2017-08-06T09:40:27.485Z,4715
2017-08-06T09:41:07.787Z,4720
2017-08-06T09:41:48.292Z,4615
2017-08-06T09:42:28.728Z,4360
2017-08-06T09:43:09.088Z,4120
2017-08-06T09:43:49.978Z,3775
2017-08-06T09:44:30.066Z,3435
2017-08-06T09:45:10.645Z,3030
2017-08-06T09:45:51.097Z,2740
2017-08-06T09:46:31.516Z,2420
2017-08-06T09:47:12.000Z,2025
2017-08-06T09:47:52.319Z,1825
2017-08-06T09:48:32.761Z,1660
2017-08-06T09:49:13.194Z,1605
2017-08-06T09:49:53.703Z,1645
2017-08-06T09:50:34.090Z,1675
2017-08-06T09:51:14.421Z,1655
2017-08-06T09:51:54.953Z,1625
2017-08-06T09:52:35.365Z,1620
2017-08-06T09:53:15.718Z,1595
2017-08-06T09:53:56.189Z,1495
2017-08-06T09:54:36.619Z,890
2017-08-06T09:55:17.089Z,700
2017-08-06T09:55:57.558Z,605
2017-08-06T09:56:37.989Z,560
2017-08-06T09:57:18.403Z,535
2017-08-06T09:57:58.881Z,520
2017-08-06T09:58:39.278Z,500
2017-08-06T09:59:19.813Z,490
2017-08-06T10:00:00.195Z,475
2017-08-06T10:00:41.330Z,500
2017-08-06T10:01:21.083Z,550
2017-08-06T10:02:01.406Z,995
2017-08-06T10:02:41.819Z,605
2017-08-06T10:03:22.270Z,835
2017-08-06T10:04:02.691Z,1360
2017-08-06T10:04:43.158Z,1370
2017-08-06T10:05:23.526Z,1370
2017-08-06T10:06:03.936Z,1350
2017-08-06T10:06:44.415Z,1345
2017-08-06T10:07:24.769Z,1290
2017-08-06T10:08:05.278Z,1225
2017-08-06T10:08:45.646Z,1265
2017-08-06T10:09:26.088Z,1340
2017-08-06T10:10:06.446Z,1405
2017-08-06T10:10:46.944Z,1430
2017-08-06T10:11:27.459Z,1435
2017-08-06T10:12:07.969Z,1395
2017-08-06T10:12:48.322Z,1410
2017-08-06T10:13:28.754Z,1490
2017-08-06T10:14:09.150Z,1530
2017-08-06T10:14:49.647Z,1490
2017-08-06T10:15:29.992Z,1480
2017-08-06T10:16:10.477Z,1485
2017-08-06T10:16:50.904Z,1490
2017-08-06T10:17:31.417Z,1485
2017-08-06T10:18:11.763Z,1510
2017-08-06T10:18:52.179Z,1505
2017-08-06T10:19:32.555Z,1545
2017-08-06T10:20:13.027Z,1625
2017-08-06T10:20:53.480Z,1740
2017-08-06T10:21:33.897Z,1790
2017-08-06T10:22:14.298Z,1755
2017-08-06T10:22:55.081Z,1710
2017-08-06T10:23:35.503Z,1645
2017-08-06T10:24:15.937Z,1680
2017-08-06T10:24:56.299Z,1775
2017-08-06T10:25:36.757Z,1820
2017-08-06T10:26:17.138Z,1120
2017-08-06T10:26:57.542Z,1810
2017-08-06T10:27:38.147Z,1815
2017-08-06T10:28:19.258Z,1885
2017-08-06T10:28:59.787Z,1880
2017-08-06T10:29:40.308Z,1850
2017-08-06T10:30:20.576Z,1975
2017-08-06T10:31:01.114Z,2125
2017-08-06T10:31:41.599Z,2145
2017-08-06T10:32:22.079Z,2160
2017-08-06T10:33:02.452Z,2260
2017-08-06T10:33:42.996Z,2280
2017-08-06T10:34:23.428Z,2235
2017-08-06T10:35:03.795Z,2230
2017-08-06T10:35:44.288Z,2250
2017-08-06T10:36:24.711Z,2315
2017-08-06T10:37:05.086Z,2340
2017-08-06T10:37:45.504Z,2315
2017-08-06T10:38:25.985Z,2315
2017-08-06T10:39:06.373Z,2315
2017-08-06T10:39:46.773Z,2355
2017-08-06T10:40:27.297Z,2435
2017-08-06T10:41:07.769Z,2555
2017-08-06T10:41:48.132Z,2540
2017-08-06T10:42:28.626Z,2505
2017-08-06T10:43:08.996Z,2570
2017-08-06T10:43:49.516Z,2610
2017-08-06T10:44:30.060Z,2505
2017-08-06T10:45:10.361Z,2365
2017-08-06T10:45:50.803Z,2390
2017-08-06T10:46:31.202Z,2565
2017-08-06T10:47:11.621Z,2775
2017-08-06T10:47:52.043Z,2830
2017-08-06T10:48:32.456Z,2915
2017-08-06T10:49:12.805Z,2920
2017-08-06T10:49:53.368Z,2980
2017-08-06T10:50:33.849Z,3115
2017-08-06T10:51:14.253Z,3275
2017-08-06T10:51:54.719Z,3305
2017-08-06T10:52:35.194Z,3295
2017-08-06T10:53:15.599Z,3230
2017-08-06T10:53:55.977Z,3265
2017-08-06T10:54:36.443Z,3255
2017-08-06T10:55:16.873Z,945
2017-08-06T10:55:57.324Z,700
2017-08-06T10:56:37.720Z,695
2017-08-06T10:57:18.306Z,695
2017-08-06T10:57:58.746Z,665
2017-08-06T10:58:39.180Z,655
2017-08-06T10:59:19.590Z,650
2017-08-06T11:00:00.063Z,655
2017-08-06T11:00:40.570Z,635
2017-08-06T11:01:21.013Z,735
2017-08-06T11:02:01.423Z,790
2017-08-06T11:02:41.850Z,705
2017-08-06T11:03:22.255Z,620
2017-08-06T11:04:02.792Z,590
2017-08-06T11:04:43.235Z,575
2017-08-06T11:05:23.609Z,565
2017-08-06T11:06:04.164Z,560
2017-08-06T11:06:44.606Z,560
2017-08-06T11:07:24.981Z,615
2017-08-06T11:08:05.410Z,3280
2017-08-06T11:08:45.856Z,3430
2017-08-06T11:09:26.287Z,3455
2017-08-06T11:10:06.738Z,3420
2017-08-06T11:10:47.179Z,3375
2017-08-06T11:11:27.648Z,3370
2017-08-06T11:12:08.036Z,3355
2017-08-06T11:12:48.437Z,3345
2017-08-06T11:13:28.949Z,3430
2017-08-06T11:14:09.385Z,3400
2017-08-06T11:14:49.770Z,3295
2017-08-06T11:15:30.192Z,3270
2017-08-06T11:16:10.820Z,3305
2017-08-06T11:16:51.284Z,3375
2017-08-06T11:17:31.665Z,3355
2017-08-06T11:18:12.207Z,3205
2017-08-06T11:18:52.686Z,3145
2017-08-06T11:19:33.203Z,3285
2017-08-06T11:20:13.576Z,3345
2017-08-06T11:20:53.980Z,3055
2017-08-06T11:21:34.524Z,3400
2017-08-06T11:22:14.896Z,3415
2017-08-06T11:22:55.427Z,3420
2017-08-06T11:23:35.817Z,3325
2017-08-06T11:24:16.457Z,3245
2017-08-06T11:24:56.796Z,3250
2017-08-06T11:25:37.155Z,3280
2017-08-06T11:26:17.673Z,3295
2017-08-06T11:26:58.096Z,3320
2017-08-06T11:27:38.497Z,3245
2017-08-06T11:28:18.932Z,3370
2017-08-06T11:28:59.396Z,3345
2017-08-06T11:29:39.713Z,3335
2017-08-06T11:30:20.217Z,3350
2017-08-06T11:31:00.653Z,3455
2017-08-06T11:31:41.371Z,3455
2017-08-06T11:32:21.700Z,3410
2017-08-06T11:33:02.065Z,3325
2017-08-06T11:33:42.513Z,3280
2017-08-06T11:34:22.989Z,3245
2017-08-06T11:35:03.483Z,3130
2017-08-06T11:35:43.927Z,3180
2017-08-06T11:36:24.294Z,3285
2017-08-06T11:37:04.633Z,3260
2017-08-06T11:37:45.114Z,3345
2017-08-06T11:38:25.560Z,3425
2017-08-06T11:39:06.014Z,3460
2017-08-06T11:39:46.423Z,3350
2017-08-06T11:40:26.877Z,3260
2017-08-06T11:41:07.322Z,3110
2017-08-06T11:41:47.814Z,3150
2017-08-06T11:42:28.256Z,3335
2017-08-06T11:43:08.717Z,3390
2017-08-06T11:43:49.206Z,3365
2017-08-06T11:44:29.848Z,3395
2017-08-06T11:45:10.247Z,2425
2017-08-06T11:45:50.676Z,630
2017-08-06T11:46:31.624Z,885
2017-08-06T11:47:12.494Z,2010
2017-08-06T11:47:52.915Z,600
2017-08-06T11:48:33.288Z,530
2017-08-06T11:49:13.853Z,505
2017-08-06T11:49:54.195Z,490
2017-08-06T11:50:34.752Z,495
2017-08-06T11:51:15.224Z,510
2017-08-06T11:51:55.724Z,510
2017-08-06T11:52:36.069Z,510
2017-08-06T11:53:16.531Z,510
2017-08-06T11:53:57.047Z,520
2017-08-06T11:54:37.478Z,540
2017-08-06T11:55:17.871Z,585
2017-08-06T11:55:58.210Z,1300
2017-08-06T11:56:38.725Z,2830
2017-08-06T11:57:19.477Z,3375
2017-08-06T11:57:59.647Z,3355
2017-08-06T11:58:40.196Z,3305
2017-08-06T11:59:20.602Z,3380
2017-08-06T12:00:01.031Z,3450
2017-08-06T12:00:41.388Z,3570
2017-08-06T12:01:21.870Z,3485
2017-08-06T12:02:02.233Z,3180
2017-08-06T12:02:42.694Z,2720
2017-08-06T12:03:23.141Z,2160
2017-08-06T12:04:03.683Z,1975
2017-08-06T12:04:44.197Z,2270
2017-08-06T12:05:24.515Z,3160
2017-08-06T12:06:04.980Z,3250
2017-08-06T12:06:45.292Z,3440
2017-08-06T12:07:25.868Z,3535
2017-08-06T12:08:06.294Z,815
2017-08-06T12:08:46.728Z,2465
2017-08-06T12:09:27.102Z,700
2017-08-06T12:10:07.577Z,685
2017-08-06T12:10:47.950Z,3405
2017-08-06T12:11:28.437Z,3395
2017-08-06T12:12:08.952Z,3380
2017-08-06T12:12:49.379Z,3565
2017-08-06T12:13:29.803Z,1110
2017-08-06T12:14:10.148Z,865
2017-08-06T12:14:50.811Z,2330
2017-08-06T12:15:31.219Z,1050
2017-08-06T12:16:11.618Z,3375
2017-08-06T12:16:52.034Z,2545
2017-08-06T12:17:32.491Z,890
2017-08-06T12:18:12.928Z,810
2017-08-06T12:18:53.328Z,955
2017-08-06T12:19:33.779Z,3405
2017-08-06T12:20:14.408Z,3555
2017-08-06T12:20:54.587Z,3545
2017-08-06T12:21:35.047Z,3460
2017-08-06T12:22:15.621Z,3420
2017-08-06T12:22:55.961Z,3345
2017-08-06T12:23:36.421Z,3300
2017-08-06T12:24:16.757Z,3250
2017-08-06T12:24:57.214Z,3250
2017-08-06T12:25:37.607Z,3015
2017-08-06T12:26:18.004Z,2600
2017-08-06T12:26:58.433Z,2335
2017-08-06T12:27:38.810Z,2595
2017-08-06T12:28:19.262Z,3005
2017-08-06T12:28:59.992Z,3350
2017-08-06T12:29:40.401Z,3435
2017-08-06T12:30:20.765Z,3300
2017-08-06T12:31:01.195Z,3160
2017-08-06T12:31:41.751Z,3135
2017-08-06T12:32:22.096Z,3135
2017-08-06T12:33:02.622Z,3070
2017-08-06T12:33:43.055Z,3220
2017-08-06T12:34:23.554Z,3410
2017-08-06T12:35:03.915Z,3545
2017-08-06T12:35:44.347Z,3400
2017-08-06T12:36:24.834Z,870
2017-08-06T12:37:05.291Z,760
2017-08-06T12:37:45.710Z,1005
2017-08-06T12:38:26.187Z,1135
2017-08-06T12:39:06.602Z,1115
2017-08-06T12:39:47.121Z,2850
2017-08-06T12:40:27.526Z,3390
2017-08-06T12:41:07.987Z,3425
2017-08-06T12:41:48.443Z,3290
2017-08-06T12:42:28.859Z,3165
2017-08-06T12:43:09.360Z,3310
2017-08-06T12:43:49.775Z,3420
2017-08-06T12:44:30.236Z,3290
2017-08-06T12:45:10.909Z,3100
2017-08-06T12:45:51.263Z,2895
2017-08-06T12:46:38.367Z,2935
2017-08-06T12:47:18.809Z,3235
2017-08-06T12:47:59.180Z,3330
2017-08-06T12:48:39.674Z,3325
2017-08-06T12:49:20.082Z,3195
2017-08-06T12:50:00.515Z,3225
2017-08-06T12:50:40.964Z,3170
2017-08-06T12:51:21.548Z,3165